Time;durP1;ratioP1;P1;durP2;ratioP2;P2;SDS_P1;SDS_P2;PMS_P1;PMS_P2;Temp;Humidity;BMP_temperature;BMP_pressure;BME280_temperature;BME280_humidity;BME280_pressure;Samples;Min_cycle;Max_cycle;Signal;HPM_P1;HPM_P2
2023/08/21 00:01:14;;;;;;;14.27;4.57;;;15.80;99.90;;;;;;5054607;28;20071;-73
2023/08/21 00:03:40;;;;;;;16.00;5.00;;;15.80;99.90;;;;;;5057406;28;20041;-74
2023/08/21 00:06:06;;;;;;;15.80;5.25;;;15.80;99.90;;;;;;5056873;28;20191;-74
2023/08/21 00:08:31;;;;;;;14.27;5.95;;;15.80;99.90;;;;;;5056823;28;20057;-74
2023/08/21 00:10:57;;;;;;;17.67;5.93;;;15.60;99.90;;;;;;5056430;28;20060;-73
2023/08/21 00:13:23;;;;;;;19.38;6.32;;;15.70;99.90;;;;;;5057615;28;20468;-73
2023/08/21 00:15:49;;;;;;;17.70;6.40;;;15.70;99.90;;;;;;5022679;28;20059;-73
2023/08/21 00:18:14;;;;;;;16.38;5.68;;;15.70;99.90;;;;;;5055432;28;20037;-73
2023/08/21 00:20:41;;;;;;;13.53;5.80;;;15.70;99.90;;;;;;5055334;28;20043;-72
2023/08/21 00:23:07;;;;;;;;;;;15.60;99.90;;;;;;5056894;28;20049;-74
2023/08/21 00:25:34;;;;;;;24.83;5.53;;;15.60;99.90;;;;;;5057077;28;19920;-73
2023/08/21 00:27:59;;;;;;;12.57;4.80;;;15.60;99.90;;;;;;5056577;28;20052;-73
2023/08/21 00:30:25;;;;;;;13.45;5.53;;;15.60;99.90;;;;;;5056212;28;20045;-74
2023/08/21 00:32:51;;;;;;;13.83;4.70;;;15.60;99.90;;;;;;5055218;28;20080;-74
2023/08/21 00:35:17;;;;;;;13.17;4.13;;;15.50;99.90;;;;;;5056040;28;20037;-74
2023/08/21 00:37:42;;;;;;;12.25;3.97;;;15.60;99.90;;;;;;5055335;28;20045;-74
2023/08/21 00:40:09;;;;;;;14.30;4.07;;;15.50;99.90;;;;;;5056187;28;20052;-72
2023/08/21 00:42:34;;;;;;;20.45;4.20;;;15.50;99.90;;;;;;5038626;28;20059;-73
2023/08/21 00:45:00;;;;;;;15.48;4.93;;;15.50;99.90;;;;;;5055830;28;20400;-74
2023/08/21 00:47:26;;;;;;;16.73;7.70;;;15.40;99.90;;;;;;5056562;28;20041;-74
2023/08/21 00:49:52;;;;;;;15.52;6.13;;;15.30;99.90;;;;;;5056078;28;20041;-75
2023/08/21 00:52:18;;;;;;;19.40;6.30;;;15.30;99.90;;;;;;5071227;28;20079;-74
2023/08/21 00:54:44;;;;;;;14.27;5.78;;;15.30;99.90;;;;;;5056462;28;20041;-73
2023/08/21 00:57:10;;;;;;;16.73;5.65;;;15.30;99.90;;;;;;5056657;28;20053;-74
2023/08/21 00:59:37;;;;;;;16.05;6.13;;;15.30;99.90;;;;;;5056360;28;20049;-74
2023/08/21 01:02:03;;;;;;;15.73;6.38;;;15.20;99.90;;;;;;5055677;28;20127;-74
2023/08/21 01:04:29;;;;;;;18.02;7.15;;;15.20;99.90;;;;;;5054409;28;20120;-73
2023/08/21 01:06:56;;;;;;;17.45;7.00;;;15.20;99.90;;;;;;5037760;28;20390;-74
2023/08/21 01:09:35;;;;;;;13.98;6.15;;;15.20;99.90;;;;;;5056436;28;20476;-74
2023/08/21 01:12:47;;;;;;;17.52;6.10;;;15.20;99.90;;;;;;5056516;28;20124;-74
2023/08/21 01:15:14;;;;;;;16.98;6.55;;;15.10;99.90;;;;;;5055256;28;20045;-74
2023/08/21 01:17:40;;;;;;;;;;;15.10;99.90;;;;;;5055747;28;20048;-73
2023/08/21 01:20:10;;;;;;;12.60;5.63;;;15.10;99.90;;;;;;5056039;28;19921;-73
2023/08/21 01:22:46;;;;;;;17.83;6.50;;;15.10;99.90;;;;;;5055652;28;20128;-73
2023/08/21 01:25:12;;;;;;;18.10;6.32;;;15.10;99.90;;;;;;5054103;28;20041;-75
2023/08/21 01:27:41;;;;;;;17.08;6.65;;;15.00;99.90;;;;;;5038407;28;20432;-73
2023/08/21 01:30:09;;;;;;;17.17;6.38;;;15.00;99.90;;;;;;5054363;28;20381;-73
2023/08/21 01:32:48;;;;;;;14.40;5.82;;;15.00;99.90;;;;;;5055605;28;20086;-74
2023/08/21 01:35:14;;;;;;;14.50;6.47;;;15.00;99.90;;;;;;5055111;28;20044;-74
2023/08/21 01:37:40;;;;;;;19.55;6.93;;;14.90;99.90;;;;;;5055111;28;20052;-73
2023/08/21 01:40:07;;;;;;;16.67;6.57;;;15.00;99.90;;;;;;5055577;28;20382;-73
2023/08/21 01:42:32;;;;;;;19.13;6.57;;;15.00;99.90;;;;;;5054971;28;20315;-74
2023/08/21 01:44:58;;;;;;;15.93;6.85;;;15.00;99.90;;;;;;5053564;28;20096;-74
2023/08/21 01:47:24;;;;;;;17.77;7.18;;;15.00;99.90;;;;;;5055515;28;20045;-74
2023/08/21 01:49:52;;;;;;;16.27;6.50;;;15.00;99.90;;;;;;5054830;28;20048;-73
2023/08/21 01:52:18;;;;;;;19.27;5.88;;;15.00;99.90;;;;;;5054763;28;20057;-74
2023/08/21 01:54:44;;;;;;;15.15;6.57;;;15.00;99.90;;;;;;5054163;28;20053;-74
2023/08/21 01:57:09;;;;;;;21.65;6.47;;;15.00;99.90;;;;;;5053540;28;20210;-73
2023/08/21 01:59:35;;;;;;;13.27;5.22;;;15.00;99.90;;;;;;5054558;28;20045;-74
2023/08/21 02:02:01;;;;;;;17.58;6.65;;;14.90;99.90;;;;;;5037165;28;20190;-74
2023/08/21 02:04:27;;;;;;;17.40;8.07;;;14.90;99.90;;;;;;5053474;28;20049;-73
2023/08/21 02:06:52;;;;;;;18.02;7.60;;;14.90;99.90;;;;;;5054556;28;20052;-73
2023/08/21 02:09:20;;;;;;;13.93;6.68;;;14.90;99.90;;;;;;5053311;28;20048;-73
2023/08/21 02:11:46;;;;;;;14.27;5.75;;;14.90;99.90;;;;;;5054232;28;20081;-73
2023/08/21 02:14:12;;;;;;;16.95;6.32;;;14.90;99.90;;;;;;5052978;28;20095;-74
2023/08/21 02:16:38;;;;;;;16.17;6.35;;;14.80;99.90;;;;;;5054358;28;20080;-74
2023/08/21 02:19:03;;;;;;;14.55;6.93;;;14.80;99.90;;;;;;5054886;28;20128;-74
2023/08/21 02:21:29;;;;;;;14.82;7.05;;;14.80;99.90;;;;;;5054209;28;20056;-74
2023/08/21 02:23:55;;;;;;;17.63;6.82;;;14.80;99.90;;;;;;5053758;28;20048;-74
2023/08/21 02:26:20;;;;;;;19.13;7.07;;;14.70;99.90;;;;;;5054244;28;20098;-74
2023/08/21 02:28:46;;;;;;;15.57;6.25;;;14.70;99.90;;;;;;5055169;28;20373;-74
2023/08/21 02:31:12;;;;;;;14.82;5.60;;;14.70;99.90;;;;;;5053742;28;20040;-74
2023/08/21 02:33:38;;;;;;;17.85;6.55;;;14.60;99.90;;;;;;5054794;28;20079;-74
2023/08/21 02:36:04;;;;;;;15.52;5.90;;;14.50;99.90;;;;;;5054101;28;20493;-74
2023/08/21 02:38:30;;;;;;;23.03;6.60;;;14.50;99.90;;;;;;5053938;28;20053;-72
2023/08/21 02:40:56;;;;;;;12.38;6.20;;;14.50;99.90;;;;;;5054503;28;20049;-73
2023/08/21 02:43:21;;;;;;;18.00;7.18;;;14.50;99.90;;;;;;5052455;28;20041;-73
2023/08/21 02:45:47;;;;;;;18.45;6.65;;;14.50;99.90;;;;;;5054154;28;20040;-73
2023/08/21 02:48:13;;;;;;;16.27;6.78;;;14.50;99.90;;;;;;5053871;28;20554;-74
2023/08/21 02:50:39;;;;;;;19.38;6.90;;;14.50;99.90;;;;;;5054476;28;20053;-73
2023/08/21 02:53:04;;;;;;;17.75;6.95;;;14.40;99.90;;;;;;5053757;28;20485;-73
2023/08/21 02:55:30;;;;;;;18.48;6.80;;;14.40;99.90;;;;;;5054242;28;20073;-73
2023/08/21 02:57:56;;;;;;;15.52;6.53;;;14.30;99.90;;;;;;5052746;28;20084;-73
2023/08/21 03:00:22;;;;;;;15.48;6.30;;;14.40;99.90;;;;;;5053756;28;20041;-73
2023/08/21 03:02:47;;;;;;;14.40;6.07;;;14.40;99.90;;;;;;5052431;28;20469;-74
2023/08/21 03:05:14;;;;;;;15.68;6.50;;;14.30;99.90;;;;;;5053691;28;20041;-74
2023/08/21 03:07:39;;;;;;;18.98;6.53;;;14.30;99.90;;;;;;5053429;28;20069;-74
2023/08/21 03:10:07;;;;;;;11.82;5.18;;;14.20;99.90;;;;;;5053804;28;20051;-74
2023/08/21 03:12:33;;;;;;;13.73;6.00;;;14.10;99.90;;;;;;5052892;28;20098;-75
2023/08/21 03:14:59;;;;;;;12.83;6.00;;;14.10;99.90;;;;;;5053899;28;20130;-74
2023/08/21 03:17:25;;;;;;;12.32;5.65;;;14.00;99.90;;;;;;5053635;28;20154;-74
2023/08/21 03:19:51;;;;;;;11.10;5.25;;;14.00;99.90;;;;;;5052402;28;20076;-73
2023/08/21 03:22:16;;;;;;;16.50;5.65;;;14.00;99.90;;;;;;5054511;28;20087;-74
2023/08/21 03:24:42;;;;;;;14.60;6.18;;;14.00;99.90;;;;;;5052210;28;20367;-74
2023/08/21 03:27:08;;;;;;;16.55;6.35;;;13.90;99.90;;;;;;5053598;28;20101;-74
2023/08/21 03:29:33;;;;;;;16.88;6.18;;;13.90;99.90;;;;;;5054171;28;20044;-74
2023/08/21 03:31:59;;;;;;;17.23;6.90;;;13.90;99.90;;;;;;5057458;28;20056;-73
2023/08/21 03:34:25;;;;;;;16.38;6.47;;;13.90;99.90;;;;;;5057713;28;20222;-73
2023/08/21 03:36:50;;;;;;;12.85;5.88;;;14.00;99.90;;;;;;5042712;28;20060;-73
2023/08/21 03:39:16;;;;;;;14.05;5.95;;;14.00;99.90;;;;;;5060206;28;20376;-73
2023/08/21 03:41:42;;;;;;;17.80;6.15;;;13.90;99.90;;;;;;5076770;28;20041;-74
2023/08/21 03:44:08;;;;;;;19.48;6.45;;;13.90;99.90;;;;;;5060745;28;20041;-74
2023/08/21 03:46:33;;;;;;;11.25;5.93;;;13.90;99.90;;;;;;5060470;28;20378;-74
2023/08/21 03:48:59;;;;;;;10.98;5.97;;;13.90;99.90;;;;;;5059457;28;20442;-73
2023/08/21 03:51:25;;;;;;;12.65;5.50;;;13.90;99.90;;;;;;5056951;28;20056;-73
2023/08/21 03:53:50;;;;;;;16.05;5.28;;;13.80;99.90;;;;;;5040109;28;20044;-74
2023/08/21 03:56:16;;;;;;;12.98;5.30;;;13.80;99.90;;;;;;5056331;28;20393;-74
2023/08/21 03:58:42;;;;;;;16.63;5.90;;;13.80;99.90;;;;;;5057697;28;20045;-73
2023/08/21 04:01:07;;;;;;;13.25;5.00;;;13.80;99.90;;;;;;5056963;28;20131;-74
2023/08/21 04:03:33;;;;;;;16.38;4.63;;;13.80;99.90;;;;;;5057165;28;20045;-74
2023/08/21 04:05:59;;;;;;;9.13;4.43;;;13.80;99.90;;;;;;5057225;28;20102;-74
2023/08/21 04:08:25;;;;;;;11.68;4.18;;;13.80;99.90;;;;;;5056943;28;20135;-74
2023/08/21 04:10:53;;;;;;;10.73;4.97;;;13.80;99.90;;;;;;5057319;28;20460;-74
2023/08/21 04:13:19;;;;;;;11.10;4.85;;;13.80;99.90;;;;;;5056884;28;20047;-74
2023/08/21 04:15:45;;;;;;;14.00;5.53;;;13.70;99.90;;;;;;5056584;28;20136;-74
2023/08/21 04:18:11;;;;;;;13.70;6.07;;;13.70;99.90;;;;;;5056717;28;20128;-75
2023/08/21 04:20:37;;;;;;;13.52;5.38;;;13.70;99.90;;;;;;5056630;28;20124;-74
2023/08/21 04:23:03;;;;;;;12.38;5.60;;;13.70;99.90;;;;;;5056603;28;20094;-75
2023/08/21 04:25:29;;;;;;;13.98;5.50;;;13.70;99.90;;;;;;5089053;28;20057;-75
2023/08/21 04:27:54;;;;;;;13.57;5.90;;;13.70;99.90;;;;;;5056340;28;20128;-75
2023/08/21 04:30:20;;;;;;;11.75;5.10;;;13.70;99.90;;;;;;5056604;28;20227;-74
2023/08/21 04:32:48;;;;;;;13.40;4.95;;;13.70;99.90;;;;;;5056419;28;20478;-74
2023/08/21 04:35:14;;;;;;;15.75;5.35;;;13.70;99.90;;;;;;5056044;28;20481;-75
2023/08/21 04:37:46;;;;;;;16.15;5.30;;;13.70;99.90;;;;;;5056331;28;20052;-74
2023/08/21 04:40:12;;;;;;;13.50;5.13;;;13.70;99.90;;;;;;5054958;28;20110;-74
2023/08/21 04:42:38;;;;;;;15.57;4.63;;;13.70;99.90;;;;;;5056214;28;20091;-75
2023/08/21 04:45:05;;;;;;;12.02;5.10;;;13.70;99.90;;;;;;5056929;28;20044;-74
2023/08/21 04:47:31;;;;;;;;;;;13.70;99.90;;;;;;5055806;28;20094;-74
2023/08/21 04:49:56;;;;;;;15.03;4.90;;;14.30;99.90;;;;;;5055177;28;19925;-74
2023/08/21 04:52:23;;;;;;;10.93;5.63;;;13.80;99.90;;;;;;5056052;28;20124;-75
2023/08/21 04:54:49;;;;;;;14.60;5.43;;;13.80;99.90;;;;;;5055951;28;20079;-74
2023/08/21 04:57:17;;;;;;;12.48;5.85;;;13.80;99.90;;;;;;5056558;28;20458;-74
2023/08/21 04:59:42;;;;;;;;;;;13.90;99.90;;;;;;5056265;28;20049;-74
2023/08/21 05:02:08;;;;;;;17.80;5.73;;;14.00;99.90;;;;;;5088448;28;19928;-74
2023/08/21 05:04:36;;;;;;;10.07;4.30;;;14.00;99.90;;;;;;5055883;28;20041;-74
2023/08/21 05:07:02;;;;;;;12.90;4.93;;;14.10;99.90;;;;;;5054319;28;20059;-74
2023/08/21 05:09:27;;;;;;;11.82;5.10;;;14.20;99.90;;;;;;5055626;28;20053;-75
2023/08/21 05:11:55;;;;;;;12.70;5.10;;;14.20;99.90;;;;;;5056269;28;20083;-74
2023/08/21 05:14:20;;;;;;;13.32;5.60;;;14.30;99.90;;;;;;5055642;28;20427;-73
2023/08/21 05:16:47;;;;;;;16.08;5.53;;;14.30;99.90;;;;;;5055516;28;20124;-74
2023/08/21 05:19:12;;;;;;;15.63;5.27;;;14.30;99.90;;;;;;5038269;28;20179;-73
2023/08/21 05:21:38;;;;;;;13.70;5.22;;;14.30;99.90;;;;;;5056183;28;20124;-74
2023/08/21 05:24:04;;;;;;;10.60;5.15;;;14.30;99.90;;;;;;5055019;28;20041;-73
2023/08/21 05:26:30;;;;;;;13.82;5.28;;;14.40;99.90;;;;;;5054147;28;20041;-74
2023/08/21 05:28:55;;;;;;;12.65;4.78;;;14.40;99.90;;;;;;5054919;28;20045;-74
2023/08/21 05:31:21;;;;;;;12.50;5.00;;;14.60;99.90;;;;;;5055585;28;20049;-74
2023/08/21 05:33:47;;;;;;;11.85;4.97;;;14.70;99.90;;;;;;5054066;28;20140;-74
2023/08/21 05:36:12;;;;;;;15.77;5.32;;;14.80;99.90;;;;;;5055119;28;20044;-74
2023/08/21 05:38:38;;;;;;;13.75;5.25;;;14.80;99.90;;;;;;5054191;28;20128;-74
2023/08/21 05:41:04;;;;;;;16.23;5.65;;;14.90;99.90;;;;;;5054138;28;20094;-74
2023/08/21 05:43:30;;;;;;;16.67;5.40;;;14.90;99.90;;;;;;5055088;28;20048;-74
2023/08/21 05:45:56;;;;;;;17.67;6.40;;;15.00;99.90;;;;;;5055159;28;20051;-74
2023/08/21 05:48:21;;;;;;;13.38;6.10;;;15.10;99.90;;;;;;5055611;28;20365;-73
2023/08/21 05:50:52;;;;;;;19.98;7.15;;;15.10;99.90;;;;;;5058072;28;20049;-74
2023/08/21 05:53:17;;;;;;;17.20;6.72;;;15.20;99.90;;;;;;5057988;28;20114;-73
2023/08/21 05:55:43;;;;;;;17.17;6.00;;;15.30;99.90;;;;;;5058819;28;20420;-73
2023/08/21 05:58:09;;;;;;;23.15;6.53;;;15.30;99.90;;;;;;5056523;28;20079;-74
2023/08/21 06:00:35;;;;;;;16.48;6.38;;;15.40;99.90;;;;;;5055369;28;20090;-74
2023/08/21 06:03:01;;;;;;;19.23;6.85;;;15.50;99.90;;;;;;5055737;28;20493;-74
2023/08/21 06:05:27;;;;;;;15.33;6.90;;;15.60;99.90;;;;;;5053928;28;20442;-73
2023/08/21 06:07:52;;;;;;;19.05;6.35;;;15.70;99.90;;;;;;5055272;28;20115;-74
2023/08/21 06:10:18;;;;;;;16.15;5.28;;;15.70;99.90;;;;;;5053563;28;20174;-74
2023/08/21 06:12:44;;;;;;;15.68;5.18;;;15.80;99.90;;;;;;5069997;28;20400;-73
2023/08/21 06:15:10;;;;;;;18.30;4.85;;;15.90;99.90;;;;;;5054345;28;20056;-74
2023/08/21 06:17:37;;;;;;;17.47;4.93;;;16.10;99.90;;;;;;5052916;28;20481;-73
2023/08/21 06:20:08;;;;;;;20.15;4.53;;;16.20;99.90;;;;;;5053948;28;20489;-73
2023/08/21 06:22:37;;;;;;;19.45;4.47;;;16.30;99.90;;;;;;5054328;28;20056;-74
2023/08/21 06:25:04;;;;;;;17.90;4.82;;;16.40;99.90;;;;;;5054048;28;20048;-74
2023/08/21 06:27:30;;;;;;;;;;;16.60;99.90;;;;;;5053409;28;20048;-74
2023/08/21 06:29:56;;;;;;;20.20;4.73;;;16.70;99.90;;;;;;5053124;28;20011;-73
2023/08/21 06:32:22;;;;;;;19.37;4.80;;;16.70;99.90;;;;;;5053999;28;20113;-73
2023/08/21 06:34:47;;;;;;;18.97;4.73;;;16.80;99.90;;;;;;5053679;28;20040;-73
2023/08/21 06:37:13;;;;;;;17.20;4.80;;;16.80;99.90;;;;;;5052691;28;20490;-73
2023/08/21 06:39:39;;;;;;;20.85;4.75;;;16.90;99.90;;;;;;5053636;28;20198;-72
2023/08/21 06:42:05;;;;;;;22.90;5.10;;;17.00;99.90;;;;;;5053988;28;20052;-73
2023/08/21 06:44:31;;;;;;;15.63;4.90;;;17.10;99.90;;;;;;5053854;28;20123;-73
2023/08/21 06:46:57;;;;;;;16.83;4.93;;;17.10;99.90;;;;;;5053745;28;20049;-73
2023/08/21 06:49:23;;;;;;;17.93;4.70;;;17.20;99.90;;;;;;5052438;28;20052;-74
2023/08/21 06:51:49;;;;;;;16.00;4.15;;;17.30;99.90;;;;;;5053715;28;20135;-72
2023/08/21 06:54:15;;;;;;;16.43;4.13;;;17.30;99.90;;;;;;5052896;28;20133;-72
2023/08/21 06:56:41;;;;;;;19.97;4.10;;;17.40;99.90;;;;;;5054545;28;20374;-73
2023/08/21 06:59:07;;;;;;;23.83;4.45;;;17.40;99.90;;;;;;5053482;28;20048;-73
2023/08/21 07:01:33;;;;;;;17.63;4.20;;;17.50;99.90;;;;;;5054035;28;20048;-73
2023/08/21 07:03:58;;;;;;;23.07;4.30;;;17.60;99.90;;;;;;5052113;28;20091;-72
2023/08/21 07:06:24;;;;;;;15.73;3.70;;;17.70;99.90;;;;;;5052097;28;20057;-72
2023/08/21 07:08:50;;;;;;;14.93;3.95;;;17.70;99.90;;;;;;5053437;28;20057;-72
2023/08/21 07:11:17;;;;;;;19.97;3.90;;;17.80;99.90;;;;;;5052223;28;20045;-73
2023/08/21 07:13:43;;;;;;;18.40;4.70;;;17.90;99.90;;;;;;5053390;28;20445;-71
2023/08/21 07:16:08;;;;;;;22.53;4.77;;;18.00;99.90;;;;;;5052282;28;20103;-72
2023/08/21 07:18:35;;;;;;;13.00;5.20;;;18.10;99.90;;;;;;5053707;28;20084;-72
2023/08/21 07:21:03;;;;;;;18.92;4.50;;;18.20;99.90;;;;;;5053589;28;20453;-74
2023/08/21 07:23:29;;;;;;;19.33;4.57;;;18.30;99.90;;;;;;5053764;28;20431;-72
2023/08/21 07:25:55;;;;;;;12.90;4.40;;;18.50;99.90;;;;;;5052912;28;20117;-73
2023/08/21 07:28:20;;;;;;;16.63;4.37;;;18.60;99.90;;;;;;5052144;28;20084;-72
2023/08/21 07:30:46;;;;;;;21.93;3.73;;;18.70;99.90;;;;;;5053896;28;20053;-73
2023/08/21 07:33:12;;;;;;;17.03;3.43;;;18.80;99.90;;;;;;5053281;28;20511;-73
2023/08/21 07:35:37;;;;;;;14.27;3.27;;;18.90;99.90;;;;;;5052965;28;20056;-72
2023/08/21 07:38:03;;;;;;;16.87;3.47;;;19.10;99.90;;;;;;5052197;28;20085;-73
2023/08/21 07:40:29;;;;;;;15.10;3.03;;;19.20;99.90;;;;;;5052499;28;20049;-72
2023/08/21 07:42:55;;;;;;;18.10;3.30;;;19.20;99.90;;;;;;5051976;28;20044;-73
2023/08/21 07:45:21;;;;;;;12.57;3.60;;;19.20;99.90;;;;;;5053031;28;20049;-73
2023/08/21 07:47:47;;;;;;;21.50;3.77;;;19.30;99.90;;;;;;5053056;28;20041;-73
2023/08/21 07:50:14;;;;;;;16.70;3.83;;;19.40;99.90;;;;;;5052036;28;20152;-72
2023/08/21 07:52:40;;;;;;;22.95;4.38;;;19.50;99.90;;;;;;5053086;28;20052;-73
2023/08/21 07:55:06;;;;;;;14.80;3.37;;;19.60;99.90;;;;;;5051835;28;20131;-72
2023/08/21 07:57:32;;;;;;;21.80;3.65;;;19.70;99.90;;;;;;5052965;28;20393;-74
2023/08/21 07:59:58;;;;;;;20.40;4.07;;;19.70;99.90;;;;;;5053083;28;20052;-73
2023/08/21 08:02:24;;;;;;;18.40;4.30;;;19.70;99.90;;;;;;5035008;28;20485;-72
2023/08/21 08:04:50;;;;;;;15.97;4.80;;;19.70;99.90;;;;;;5053749;28;20107;-73
2023/08/21 08:07:15;;;;;;;14.20;4.50;;;19.70;99.90;;;;;;5053250;28;20283;-72
2023/08/21 08:09:41;;;;;;;18.53;3.83;;;19.80;99.90;;;;;;5053279;28;20080;-72
2023/08/21 08:12:07;;;;;;;13.23;3.60;;;19.80;99.90;;;;;;5051723;28;20053;-74
2023/08/21 08:14:33;;;;;;;14.50;4.68;;;19.90;99.90;;;;;;5053154;28;20409;-72
2023/08/21 08:16:59;;;;;;;17.77;3.77;;;20.00;99.90;;;;;;5051867;28;20049;-73
2023/08/21 08:19:25;;;;;;;14.90;2.50;;;20.10;99.90;;;;;;5052293;28;20191;-73
2023/08/21 08:21:50;;;;;;;19.57;3.50;;;20.20;99.90;;;;;;5055183;28;20041;-71
2023/08/21 08:24:16;;;;;;;14.63;3.80;;;20.30;99.90;;;;;;5056447;28;20386;-72
2023/08/21 08:26:43;;;;;;;15.80;3.70;;;20.30;99.90;;;;;;5057043;28;20045;-73
2023/08/21 08:29:09;;;;;;;19.10;4.43;;;20.40;99.90;;;;;;5056704;28;20057;-72
2023/08/21 08:31:35;;;;;;;16.02;4.15;;;20.50;99.90;;;;;;5055361;28;20485;-72
2023/08/21 08:34:00;;;;;;;19.00;5.20;;;20.60;99.90;;;;;;5056325;28;20099;-72
2023/08/21 08:36:26;;;;;;;21.40;6.53;;;20.70;99.90;;;;;;5056822;28;20041;-72
2023/08/21 08:38:52;;;;;;;19.57;6.03;;;20.70;99.90;;;;;;5056796;28;20055;-72
2023/08/21 08:41:41;;;;;;;20.13;5.27;;;20.80;99.90;;;;;;5056245;28;20436;-73
2023/08/21 08:44:07;;;;;;;13.95;5.68;;;20.90;99.90;;;;;;5055035;28;20048;-73
2023/08/21 08:46:33;;;;;;;21.42;5.13;;;21.00;99.90;;;;;;5055186;28;20048;-72
2023/08/21 08:49:00;;;;;;;26.27;5.50;;;21.10;99.90;;;;;;5056179;28;20135;-72
2023/08/21 08:51:30;;;;;;;18.95;5.20;;;21.20;99.90;;;;;;5056086;28;20048;-74
2023/08/21 08:53:57;;;;;;;20.60;5.88;;;21.30;99.90;;;;;;5056315;28;20171;-74
2023/08/21 08:56:23;;;;;;;19.95;6.25;;;21.40;99.90;;;;;;5055890;28;20053;-73
2023/08/21 08:58:49;;;;;;;24.67;6.55;;;21.40;99.90;;;;;;5056009;28;20049;-73
2023/08/21 09:01:15;;;;;;;20.37;5.63;;;21.50;99.90;;;;;;5055042;28;20052;-72
2023/08/21 09:03:41;;;;;;;19.90;5.60;;;21.50;99.90;;;;;;5054649;28;20051;-72
2023/08/21 09:06:07;;;;;;;22.33;5.70;;;21.60;99.90;;;;;;5055241;28;20065;-73
2023/08/21 09:08:32;;;;;;;22.30;6.40;;;21.70;99.90;;;;;;5056283;28;20119;-72
2023/08/21 09:11:03;;;;;;;17.23;5.20;;;21.70;99.90;;;;;;5054597;28;20455;-71
2023/08/21 09:13:31;;;;;;;14.85;4.68;;;21.70;99.90;;;;;;5054642;28;20438;-71
2023/08/21 09:15:56;;;;;;;19.05;5.00;;;21.70;99.90;;;;;;5055519;28;20501;-71
2023/08/21 09:18:22;;;;;;;18.70;4.17;;;21.70;99.90;;;;;;5055352;28;20044;-73
2023/08/21 09:20:48;;;;;;;19.23;5.90;;;21.70;99.90;;;;;;5055779;28;20040;-73
2023/08/21 09:23:18;;;;;;;19.70;5.57;;;21.90;99.90;;;;;;5055363;28;20045;-71
2023/08/21 09:25:48;;;;;;;24.67;5.65;;;22.10;99.90;;;;;;5055218;28;20055;-73
2023/08/21 09:28:18;;;;;;;23.42;5.97;;;22.30;99.90;;;;;;5055299;28;20083;-71
2023/08/21 09:30:45;;;;;;;21.60;4.47;;;22.40;99.90;;;;;;5054135;28;20055;-72
2023/08/21 09:33:11;;;;;;;21.65;4.70;;;22.50;99.90;;;;;;5053031;28;20087;-71
2023/08/21 09:35:37;;;;;;;14.75;4.78;;;22.60;99.90;;;;;;5055238;28;20060;-72
2023/08/21 09:38:04;;;;;;;23.90;4.80;;;22.60;99.90;;;;;;5055364;28;20045;-71
2023/08/21 09:40:30;;;;;;;13.45;3.42;;;22.40;99.90;;;;;;5054744;28;20465;-74
2023/08/21 09:42:56;;;;;;;14.00;3.23;;;22.40;99.90;;;;;;5054172;28;20159;-73
2023/08/21 09:45:27;;;;;;;17.15;3.30;;;22.50;99.90;;;;;;5055057;28;20041;-72
2023/08/21 09:47:53;;;;;;;13.18;2.55;;;22.60;99.90;;;;;;5055373;28;20053;-74
2023/08/21 09:50:20;;;;;;;14.20;2.47;;;22.70;99.90;;;;;;5056097;28;20057;-74
2023/08/21 09:52:46;;;;;;;13.93;3.55;;;22.70;99.90;;;;;;5059894;28;20040;-73
2023/08/21 09:55:15;;;;;;;12.68;2.80;;;22.80;99.90;;;;;;5059696;28;20049;-72
2023/08/21 09:57:41;;;;;;;16.42;2.60;;;22.80;99.90;;;;;;5060668;28;20052;-73
2023/08/21 10:00:15;;;;;;;16.50;4.13;;;22.80;99.90;;;;;;5059752;28;20051;-74
2023/08/21 10:02:49;;;;;;;21.17;4.07;;;22.80;99.90;;;;;;5058564;28;20083;-73
2023/08/21 10:05:17;;;;;;;20.08;3.20;;;22.80;99.90;;;;;;5057136;28;20041;-73
2023/08/21 10:07:48;;;;;;;14.65;2.88;;;22.90;99.90;;;;;;5055407;28;20386;-73
2023/08/21 10:10:15;;;;;;;12.07;2.95;;;23.00;99.90;;;;;;5055822;28;20052;-74
2023/08/21 10:12:41;;;;;;;14.85;3.33;;;23.00;99.90;;;;;;5056493;28;20370;-74
2023/08/21 10:15:09;;;;;;;15.80;3.25;;;23.00;99.90;;;;;;5054899;28;20175;-74
2023/08/21 10:17:36;;;;;;;11.88;2.50;;;23.10;99.90;;;;;;5055212;28;20056;-73
2023/08/21 10:20:03;;;;;;;11.68;2.50;;;23.10;99.90;;;;;;5054587;28;20052;-73
2023/08/21 10:22:43;;;;;;;17.40;2.95;;;23.20;99.90;;;;;;5053315;28;20520;-73
2023/08/21 10:25:25;;;;;;;17.20;2.72;;;23.10;99.90;;;;;;5037488;28;20053;-74
2023/08/21 10:28:04;;;;;;;19.45;2.75;;;23.20;99.90;;;;;;5054355;28;20041;-72
2023/08/21 10:30:30;;;;;;;17.90;3.28;;;23.30;99.90;;;;;;5054157;28;20055;-74
2023/08/21 10:33:00;;;;;;;15.23;2.70;;;23.30;99.90;;;;;;5053286;28;20040;-73
2023/08/21 10:35:30;;;;;;;19.60;2.90;;;23.40;99.90;;;;;;5054131;28;20064;-73
2023/08/21 10:38:17;;;;;;;15.82;2.55;;;23.50;99.90;;;;;;5054636;28;20351;-72
2023/08/21 10:41:08;;;;;;;14.07;3.13;;;23.50;99.90;;;;;;5053912;28;20041;-74
2023/08/21 10:43:45;;;;;;;19.35;2.65;;;23.50;99.90;;;;;;5053407;28;20083;-73
2023/08/21 10:46:12;;;;;;;13.68;2.90;;;23.50;99.90;;;;;;5053980;28;20132;-74
2023/08/21 10:48:39;;;;;;;12.63;2.90;;;23.60;99.90;;;;;;5036320;28;20156;-74
2023/08/21 10:51:12;;;;;;;15.75;3.05;;;23.70;99.90;;;;;;5053901;28;20080;-74
2023/08/21 10:53:39;;;;;;;17.42;2.97;;;23.70;99.90;;;;;;5053663;28;20366;-73
2023/08/21 10:56:06;;;;;;;11.70;2.75;;;23.70;99.90;;;;;;5054730;28;20049;-74
2023/08/21 10:58:40;;;;;;;15.23;2.70;;;23.70;99.90;;;;;;5052464;28;20053;-72
2023/08/21 11:01:06;;;;;;;16.17;2.88;;;;;;;;;;5053854;28;20079;-75
2023/08/21 11:03:32;;;;;;;13.55;2.45;;;23.80;99.90;;;;;;5053347;28;20515;-75
2023/08/21 11:06:09;;;;;;;12.13;2.47;;;23.80;99.90;;;;;;5052535;28;20048;-76
2023/08/21 11:08:36;;;;;;;10.02;2.05;;;23.80;99.90;;;;;;5054199;28;20789;-74
2023/08/21 11:11:03;;;;;;;;;;;23.80;99.90;;;;;;5053329;28;20068;-73
2023/08/21 11:13:29;;;;;;;12.95;2.47;;;23.90;99.90;;;;;;5052985;28;19931;-74
2023/08/21 11:16:03;;;;;;;9.13;2.30;;;24.00;99.90;;;;;;5053262;28;20084;-74
2023/08/21 11:18:35;;;;;;;13.82;2.33;;;24.00;99.90;;;;;;5053442;28;20163;-74
2023/08/21 11:21:06;;;;;;;10.20;1.90;;;24.00;99.90;;;;;;5052260;28;20153;-74
2023/08/21 11:23:34;;;;;;;8.90;2.15;;;24.10;99.90;;;;;;5052153;28;20189;-73
2023/08/21 11:25:59;;;;;;;14.18;2.65;;;24.00;99.90;;;;;;5053882;28;20083;-73
2023/08/21 11:28:26;;;;;;;12.03;2.40;;;;;;;;;;5053573;28;20041;-74
2023/08/21 11:30:52;;;;;;;13.52;2.53;;;;;;;;;;5053460;28;20052;-75
2023/08/21 11:33:18;;;;;;;13.23;2.22;;;;;;;;;;5053264;28;20057;-74
2023/08/21 11:35:45;;;;;;;15.20;2.80;;;;;;;;;;5053427;28;20044;-74
2023/08/21 11:38:15;;;;;;;16.40;2.67;;;;;;;;;;5052229;28;20048;-74
2023/08/21 11:40:41;;;;;;;12.95;2.83;;;;;;;;;;5052831;28;20102;-74
2023/08/21 11:43:09;;;;;;;10.50;2.20;;;;;;;;;;5052904;28;20489;-74
2023/08/21 11:45:35;;;;;;;11.05;2.10;;;;;;;;;;5053098;28;20084;-74
2023/08/21 11:48:03;;;;;;;12.35;2.38;;;;;;;;;;5052558;28;20107;-73
2023/08/21 11:50:29;;;;;;;15.63;2.63;;;;;;;;;;5053200;28;20110;-75
2023/08/21 11:52:55;;;;;;;11.35;2.53;;;;;;;;;;5053273;28;20045;-75
2023/08/21 11:55:21;;;;;;;;;;;;;;;;;;5054367;28;20045;-73
2023/08/21 11:57:49;;;;;;;12.73;2.10;;;;;;;;;;5089226;28;19967;-74
2023/08/21 12:00:18;;;;;;;10.27;2.17;;;;;;;;;;5057055;28;20049;-73
2023/08/21 12:02:45;;;;;;;9.77;1.92;;;;;;;;;;5057577;28;20116;-75
2023/08/21 12:05:15;;;;;;;13.73;2.30;;;;;;;;;;5056581;28;20076;-75
2023/08/21 12:07:41;;;;;;;12.05;2.30;;;;;;;;;;5055913;28;20057;-74
2023/08/21 12:10:08;;;;;;;12.05;2.40;;;;;;;;;;5055869;28;20136;-75
2023/08/21 12:12:34;;;;;;;14.38;2.42;;;;;;;;;;5056732;28;20078;-74
2023/08/21 12:15:00;;;;;;;15.63;2.10;;;;;;;;;;5056478;28;20044;-74
2023/08/21 12:17:26;;;;;;;11.55;2.30;;;;;;;;;;5055666;28;20190;-73
2023/08/21 12:19:52;;;;;;;18.42;2.65;;;;;;;;;;5055978;28;20053;-73
2023/08/21 12:22:19;;;;;;;18.48;2.55;;;;;;;;;;5039117;28;20056;-73
2023/08/21 12:24:45;;;;;;;14.75;2.83;;;;;;;;;;5056591;28;20550;-75
2023/08/21 12:27:11;;;;;;;14.40;3.25;;;;;;;;;;5057007;28;20052;-74
2023/08/21 12:29:38;;;;;;;12.73;2.30;;;;;;;;;;5056546;28;20049;-73
2023/08/21 12:32:04;;;;;;;17.50;2.55;;;;;;;;;;5056471;28;20122;-75
2023/08/21 12:34:30;;;;;;;14.15;2.83;;;;;;;;;;5055639;28;20040;-74
2023/08/21 12:36:56;;;;;;;12.07;2.65;;;;;;;;;;5055380;28;20091;-73
2023/08/21 12:39:22;;;;;;;18.00;3.67;;;;;;;;;;5056495;28;20396;-74
2023/08/21 12:41:48;;;;;;;11.63;3.17;;;;;;;;;;5056160;28;20048;-74
2023/08/21 12:44:14;;;;;;;16.80;3.10;;;;;;;;;;5057683;28;20087;-74
2023/08/21 12:46:41;;;;;;;11.60;2.50;;;;;;;;;;5057677;28;20052;-72
2023/08/21 12:49:07;;;;;;;16.90;2.80;;;;;;;;;;5057970;28;20056;-73